createdAt,value
2022-10-15T00:01:42.129Z,16.60
2022-10-15T00:04:12.319Z,16.60
2022-10-15T00:06:42.522Z,16.60
2022-10-15T00:09:09.650Z,16.60
2022-10-15T00:11:36.598Z,16.50
2022-10-15T00:14:03.767Z,16.50
2022-10-15T00:16:32.766Z,16.50
2022-10-15T00:19:00.298Z,16.50
2022-10-15T00:21:27.768Z,16.50
2022-10-15T00:23:55.437Z,16.50
2022-10-15T00:26:28.452Z,16.50
2022-10-15T00:28:59.063Z,16.50
2022-10-15T00:31:28.684Z,16.50
2022-10-15T00:33:58.337Z,16.50
2022-10-15T00:36:27.925Z,16.50
2022-10-15T00:38:55.521Z,16.40
2022-10-15T00:41:30.914Z,16.40
2022-10-15T00:44:24.470Z,16.40
2022-10-15T00:46:58.488Z,16.30
2022-10-15T00:49:33.691Z,16.40
2022-10-15T00:52:23.934Z,16.30
2022-10-15T00:55:01.403Z,16.30
2022-10-15T00:57:31.057Z,16.30
2022-10-15T01:00:02.829Z,16.30
2022-10-15T01:02:29.871Z,16.30
2022-10-15T01:04:57.272Z,16.30
2022-10-15T01:07:25.046Z,16.30
2022-10-15T01:09:56.073Z,16.30
2022-10-15T01:12:39.794Z,16.30
2022-10-15T01:15:18.870Z,16.30
2022-10-15T01:17:54.310Z,16.30
2022-10-15T01:21:03.599Z,16.30
2022-10-15T01:23:58.331Z,16.30
2022-10-15T01:26:32.435Z,16.30
2022-10-15T01:29:41.324Z,16.20
2022-10-15T01:32:25.695Z,16.20
2022-10-15T01:35:19.301Z,16.30
2022-10-15T01:37:55.900Z,16.30
2022-10-15T01:40:57.468Z,16.20
2022-10-15T01:44:06.175Z,16.20
2022-10-15T01:46:50.888Z,16.20
2022-10-15T01:49:26.442Z,16.20
2022-10-15T01:51:56.377Z,16.10
2022-10-15T01:54:29.781Z,16.20
2022-10-15T01:56:58.253Z,16.20
2022-10-15T01:59:30.288Z,16.10
2022-10-15T02:01:59.069Z,16.10
2022-10-15T02:04:29.187Z,16.30
2022-10-15T02:07:11.556Z,16.20
2022-10-15T02:09:47.887Z,16.10
2022-10-15T02:12:26.813Z,16.10
2022-10-15T02:15:11.363Z,16.00
2022-10-15T02:17:58.391Z,16.10
2022-10-15T02:20:50.964Z,16.10
2022-10-15T02:23:26.460Z,16.10
2022-10-15T02:26:00.325Z,16.10
2022-10-15T02:28:31.484Z,16.10
2022-10-15T02:31:02.464Z,16.10
2022-10-15T02:33:39.378Z,16.10
2022-10-15T02:36:08.582Z,16.10
2022-10-15T02:38:37.714Z,16.10
2022-10-15T02:41:05.281Z,16.10
2022-10-15T02:43:39.697Z,16.10
2022-10-15T02:46:09.247Z,16.10
2022-10-15T02:48:40.364Z,16.10
2022-10-15T02:51:10.523Z,16.10
2022-10-15T02:53:38.595Z,16.10
2022-10-15T02:56:05.682Z,16.10
2022-10-15T02:58:32.975Z,16.10
2022-10-15T03:01:00.223Z,16.10
2022-10-15T03:03:31.474Z,16.10
2022-10-15T03:06:01.703Z,16.10
2022-10-15T03:08:28.991Z,16.20
2022-10-15T03:10:56.037Z,16.20
2022-10-15T03:13:23.853Z,16.20
2022-10-15T03:15:52.851Z,16.20
2022-10-15T03:18:20.270Z,16.20
2022-10-15T03:21:04.285Z,16.20
2022-10-15T03:26:11.375Z,16.20
2022-10-15T03:28:38.975Z,16.20
2022-10-15T03:31:06.751Z,16.20
2022-10-15T03:33:33.942Z,16.20
2022-10-15T03:36:02.935Z,16.20
2022-10-15T03:38:31.843Z,16.20
2022-10-15T03:40:59.754Z,16.20
2022-10-15T03:43:35.390Z,16.20
2022-10-15T03:46:07.400Z,16.20
2022-10-15T03:48:38.682Z,16.20
2022-10-15T03:51:05.802Z,16.10
2022-10-15T03:53:32.759Z,16.10
2022-10-15T03:56:06.657Z,16.10
2022-10-15T03:58:37.564Z,16.10
2022-10-15T04:01:16.031Z,16.00
2022-10-15T04:03:43.249Z,16.00
2022-10-15T04:06:10.634Z,16.00
2022-10-15T04:08:41.180Z,15.90
2022-10-15T04:11:20.994Z,15.90
2022-10-15T04:13:56.673Z,15.90
2022-10-15T04:16:26.370Z,15.90
2022-10-15T04:18:57.822Z,16.00
2022-10-15T04:21:26.246Z,15.90
2022-10-15T04:24:00.402Z,15.90
2022-10-15T04:26:34.315Z,16.00
2022-10-15T04:29:01.803Z,16.00
2022-10-15T04:31:29.622Z,16.00
2022-10-15T04:33:57.709Z,16.00
2022-10-15T04:36:25.494Z,16.00
2022-10-15T04:39:12.255Z,16.00
2022-10-15T04:41:43.911Z,16.00
2022-10-15T04:44:17.096Z,16.00
2022-10-15T04:46:52.509Z,16.00
2022-10-15T04:49:43.414Z,15.80
2022-10-15T04:52:30.721Z,15.80
2022-10-15T04:55:04.849Z,15.80
2022-10-15T04:57:37.418Z,15.80
2022-10-15T05:00:05.583Z,15.80
2022-10-15T05:02:33.164Z,15.80
2022-10-15T05:05:38.437Z,15.70
2022-10-15T05:08:08.277Z,15.70
2022-10-15T05:10:55.072Z,15.70
2022-10-15T05:13:22.809Z,15.70
2022-10-15T05:15:50.289Z,15.70
2022-10-15T05:18:21.233Z,15.80
2022-10-15T05:20:52.376Z,15.70
2022-10-15T05:23:22.896Z,15.80
2022-10-15T05:26:04.755Z,15.80
2022-10-15T05:28:33.368Z,15.70
2022-10-15T05:31:17.572Z,15.70
2022-10-15T05:33:47.646Z,15.80
2022-10-15T05:36:20.626Z,15.80
2022-10-15T05:39:00.369Z,15.90
2022-10-15T05:41:29.571Z,15.90
2022-10-15T05:43:59.897Z,15.90
2022-10-15T05:46:33.689Z,16.00
2022-10-15T05:49:00.854Z,15.90
2022-10-15T05:51:32.181Z,15.90
2022-10-15T05:54:12.846Z,16.00
2022-10-15T05:56:42.630Z,16.00
2022-10-15T05:59:10.023Z,16.00
2022-10-15T06:01:39.221Z,16.00
2022-10-15T06:04:06.261Z,16.00
2022-10-15T06:06:37.654Z,16.00
2022-10-15T06:09:04.606Z,15.90
2022-10-15T06:11:31.900Z,15.90
2022-10-15T06:13:59.189Z,15.90
2022-10-15T06:16:26.300Z,15.90
2022-10-15T06:18:53.758Z,15.80
2022-10-15T06:21:21.078Z,15.80
2022-10-15T06:23:48.236Z,15.80
2022-10-15T06:26:15.147Z,15.80
2022-10-15T06:28:48.398Z,15.90
2022-10-15T06:31:15.688Z,16.00
2022-10-15T06:33:42.776Z,16.00
2022-10-15T06:36:11.460Z,16.00
2022-10-15T06:38:39.615Z,16.00
2022-10-15T06:41:09.322Z,16.00
2022-10-15T06:43:36.580Z,16.00
2022-10-15T06:46:07.373Z,16.00
2022-10-15T06:48:34.818Z,16.00
2022-10-15T06:51:02.671Z,16.00
2022-10-15T06:53:31.058Z,15.90
2022-10-15T06:56:05.464Z,16.00
2022-10-15T06:58:37.399Z,16.00
2022-10-15T07:01:06.901Z,16.10
2022-10-15T07:03:33.878Z,16.10
2022-10-15T07:06:04.317Z,16.10
2022-10-15T07:08:31.524Z,16.20
2022-10-15T07:10:58.648Z,16.20
2022-10-15T07:13:30.621Z,16.20
2022-10-15T07:16:08.609Z,16.30
2022-10-15T07:18:36.760Z,16.30
2022-10-15T07:23:42.507Z,16.40
2022-10-15T07:26:09.486Z,16.50
2022-10-15T07:28:42.932Z,16.50
2022-10-15T07:31:09.911Z,16.50
2022-10-15T07:33:37.259Z,16.60
2022-10-15T07:36:06.363Z,16.50
2022-10-15T07:38:37.029Z,16.70
2022-10-15T07:41:05.957Z,16.60
2022-10-15T07:43:40.341Z,16.70
2022-10-15T07:46:07.427Z,16.80
2022-10-15T07:48:34.455Z,16.80
2022-10-15T07:51:06.742Z,16.80
2022-10-15T07:53:34.308Z,16.90
2022-10-15T07:56:03.121Z,16.90
2022-10-15T07:58:41.326Z,17.00
2022-10-15T08:01:12.142Z,17.00
2022-10-15T08:03:39.039Z,17.00
2022-10-15T08:06:10.164Z,17.00
2022-10-15T08:08:39.836Z,17.00
2022-10-15T08:11:13.028Z,17.10
2022-10-15T08:13:42.492Z,17.20
2022-10-15T08:16:13.581Z,17.20
2022-10-15T08:18:42.538Z,17.20
2022-10-15T08:21:10.913Z,17.20
2022-10-15T08:23:37.961Z,17.30
2022-10-15T08:26:05.441Z,17.30
2022-10-15T08:28:34.690Z,17.30
2022-10-15T08:31:05.691Z,17.40
2022-10-15T08:33:36.024Z,17.50
2022-10-15T08:36:06.284Z,17.40
2022-10-15T08:38:38.598Z,17.40
2022-10-15T08:41:27.049Z,17.40
2022-10-15T08:43:54.086Z,17.60
2022-10-15T08:46:39.261Z,17.60
2022-10-15T08:49:18.184Z,17.60
2022-10-15T08:51:49.998Z,17.60
2022-10-15T08:54:19.973Z,17.60
2022-10-15T08:57:01.720Z,17.70
2022-10-15T09:00:08.568Z,17.80
2022-10-15T09:02:44.950Z,17.90
2022-10-15T09:05:37.426Z,18.00
2022-10-15T09:08:47.844Z,18.00
2022-10-15T09:11:40.469Z,18.20
2022-10-15T09:14:14.405Z,18.40
2022-10-15T09:16:43.217Z,18.50
2022-10-15T09:19:22.520Z,18.70
2022-10-15T09:21:51.933Z,18.70
2022-10-15T09:24:25.600Z,18.80
2022-10-15T09:27:14.669Z,19.00
2022-10-15T09:30:13.107Z,19.10
2022-10-15T09:32:59.622Z,19.10
2022-10-15T09:35:29.034Z,19.20
2022-10-15T09:38:15.058Z,19.30
2022-10-15T09:41:35.714Z,19.50
2022-10-15T09:44:11.104Z,19.50
2022-10-15T09:46:50.861Z,19.50
2022-10-15T09:49:26.522Z,19.50
2022-10-15T09:52:11.479Z,19.40
2022-10-15T09:54:47.408Z,19.50
2022-10-15T09:57:20.638Z,19.50
2022-10-15T10:00:02.021Z,19.50
2022-10-15T10:02:39.793Z,19.50
2022-10-15T10:05:33.500Z,19.50
2022-10-15T10:08:26.950Z,19.60
2022-10-15T10:11:06.631Z,19.80
2022-10-15T10:13:49.018Z,19.90
2022-10-15T10:16:19.180Z,19.90
2022-10-15T10:19:06.113Z,20.00
2022-10-15T10:21:39.409Z,20.00
2022-10-15T10:24:30.383Z,20.10
2022-10-15T10:27:02.129Z,20.10
2022-10-15T10:29:34.493Z,20.10
2022-10-15T10:32:23.982Z,20.10
2022-10-15T10:34:52.832Z,20.10
2022-10-15T10:37:23.586Z,20.10
2022-10-15T10:40:00.653Z,20.20
2022-10-15T10:42:34.812Z,20.30
2022-10-15T10:45:18.903Z,20.20
2022-10-15T10:47:46.401Z,20.30
2022-10-15T10:50:34.645Z,20.30
2022-10-15T10:53:24.261Z,20.30
2022-10-15T10:55:59.011Z,20.30
2022-10-15T10:58:33.292Z,20.40
2022-10-15T11:01:00.960Z,20.40
2022-10-15T11:03:44.184Z,20.40
2022-10-15T11:06:13.926Z,20.40
2022-10-15T11:08:51.250Z,20.40
2022-10-15T11:11:19.715Z,20.50
2022-10-15T11:14:17.629Z,20.50
2022-10-15T11:17:11.758Z,20.60
2022-10-15T11:20:19.978Z,20.70
2022-10-15T11:23:17.151Z,20.70
2022-10-15T11:26:24.272Z,20.80
2022-10-15T11:29:12.895Z,20.80
2022-10-15T11:32:01.969Z,20.70
2022-10-15T11:34:41.859Z,20.80
2022-10-15T11:37:37.144Z,20.90
2022-10-15T11:40:05.677Z,21.00
2022-10-15T11:42:52.054Z,21.00
2022-10-15T11:45:21.942Z,21.00
2022-10-15T11:48:02.610Z,21.00
2022-10-15T11:50:32.437Z,21.00
2022-10-15T11:53:05.277Z,20.90
2022-10-15T11:56:06.204Z,20.90
2022-10-15T11:58:43.986Z,20.90
2022-10-15T12:01:19.850Z,20.80
2022-10-15T12:04:03.731Z,20.90
2022-10-15T12:06:39.523Z,20.80
2022-10-15T12:09:12.720Z,20.70
2022-10-15T12:12:04.471Z,20.60
2022-10-15T12:14:44.370Z,20.50
2022-10-15T12:17:22.316Z,20.40
2022-10-15T12:20:00.896Z,20.50
2022-10-15T12:22:48.432Z,20.50
2022-10-15T12:25:34.041Z,20.60
2022-10-15T12:28:14.204Z,20.70
2022-10-15T12:30:43.404Z,20.70
2022-10-15T12:33:29.172Z,20.70
2022-10-15T12:36:01.671Z,20.60
2022-10-15T12:38:37.867Z,20.50
2022-10-15T12:41:13.993Z,20.50
2022-10-15T12:43:51.529Z,20.40
2022-10-15T12:46:21.474Z,20.50
2022-10-15T12:48:48.510Z,20.50
2022-10-15T12:51:24.325Z,20.40
2022-10-15T12:53:53.060Z,20.00
2022-10-15T12:56:25.012Z,19.60
2022-10-15T12:58:54.731Z,19.20
2022-10-15T13:01:21.986Z,18.90
2022-10-15T13:03:52.092Z,18.60
2022-10-15T13:06:24.117Z,18.50
2022-10-15T13:08:54.978Z,18.40
2022-10-15T13:11:29.784Z,18.30
2022-10-15T13:14:37.468Z,18.30
2022-10-15T13:17:14.727Z,18.30
2022-10-15T13:19:52.778Z,18.20
2022-10-15T13:22:28.795Z,18.20
2022-10-15T13:24:56.590Z,18.20
2022-10-15T13:27:31.096Z,18.30
2022-10-15T13:30:01.676Z,18.40
2022-10-15T13:32:31.798Z,18.30
2022-10-15T13:35:00.976Z,18.30
2022-10-15T13:37:32.565Z,18.30
2022-10-15T13:40:04.725Z,18.30
2022-10-15T13:43:02.087Z,18.30
2022-10-15T13:45:29.850Z,18.30
2022-10-15T13:47:56.998Z,18.20
2022-10-15T13:50:31.033Z,18.20
2022-10-15T13:53:02.558Z,18.20
2022-10-15T13:55:36.391Z,18.10
2022-10-15T13:58:26.642Z,18.20
2022-10-15T14:01:01.228Z,18.20
2022-10-15T14:03:31.152Z,18.00
2022-10-15T14:06:09.063Z,18.00
2022-10-15T14:08:37.188Z,18.10
2022-10-15T14:11:05.789Z,17.90
2022-10-15T14:13:32.857Z,18.10
2022-10-15T14:16:13.052Z,17.90
2022-10-15T14:18:48.249Z,17.90
2022-10-15T14:21:19.660Z,17.80
2022-10-15T14:23:48.918Z,17.70
2022-10-15T14:26:23.645Z,17.70
2022-10-15T14:28:52.254Z,17.70
2022-10-15T14:31:38.550Z,17.70
2022-10-15T14:34:38.573Z,17.70
2022-10-15T14:37:36.266Z,17.70
2022-10-15T14:40:13.326Z,17.80
2022-10-15T14:42:56.207Z,17.80
2022-10-15T14:45:31.334Z,17.80
2022-10-15T14:48:18.229Z,17.80
2022-10-15T14:50:45.423Z,17.80
2022-10-15T14:53:20.054Z,17.80
2022-10-15T14:56:20.356Z,17.90
2022-10-15T14:58:54.228Z,17.90
2022-10-15T15:01:21.723Z,17.90
2022-10-15T15:03:52.182Z,17.90
2022-10-15T15:06:22.198Z,17.90
2022-10-15T15:08:51.816Z,18.00
2022-10-15T15:11:24.200Z,18.00
2022-10-15T15:13:54.570Z,18.00
2022-10-15T15:16:22.144Z,18.00
2022-10-15T15:18:51.992Z,18.10
2022-10-15T15:21:23.284Z,18.00
2022-10-15T15:23:50.768Z,18.10
2022-10-15T15:26:17.856Z,18.10
2022-10-15T15:28:45.034Z,18.10
2022-10-15T15:31:18.349Z,18.10
2022-10-15T15:33:48.377Z,18.20
2022-10-15T15:36:22.564Z,18.20
2022-10-15T15:38:58.613Z,18.10
2022-10-15T15:41:26.182Z,18.20
2022-10-15T15:43:55.067Z,18.20
2022-10-15T15:46:24.358Z,18.30
2022-10-15T15:48:51.335Z,18.40
2022-10-15T15:51:32.324Z,18.50
2022-10-15T15:53:59.509Z,18.70
2022-10-15T15:56:26.580Z,18.90
2022-10-15T15:58:54.068Z,19.00
2022-10-15T16:01:21.622Z,18.90
2022-10-15T16:03:48.636Z,19.00
2022-10-15T16:06:19.328Z,19.00
2022-10-15T16:08:48.295Z,19.00
2022-10-15T16:11:19.294Z,18.80
2022-10-15T16:13:46.473Z,18.80
2022-10-15T16:16:13.613Z,18.70
2022-10-15T16:18:40.833Z,18.60
2022-10-15T16:21:08.184Z,18.50
2022-10-15T16:23:37.465Z,18.40
2022-10-15T16:26:04.492Z,18.30
2022-10-15T16:28:41.501Z,18.30
2022-10-15T16:31:27.764Z,18.20
2022-10-15T16:33:58.305Z,18.10
2022-10-15T16:36:25.743Z,18.00
2022-10-15T16:38:53.212Z,18.00
2022-10-15T16:41:20.486Z,17.90
2022-10-15T16:43:48.738Z,17.90
2022-10-15T16:46:20.497Z,17.80
2022-10-15T16:48:55.378Z,17.70
2022-10-15T16:51:24.120Z,17.70
2022-10-15T16:53:52.000Z,17.60
2022-10-15T16:56:32.010Z,17.60
2022-10-15T16:58:59.404Z,17.50
2022-10-15T17:01:30.631Z,17.50
2022-10-15T17:04:00.959Z,17.40
2022-10-15T17:06:30.467Z,17.30
2022-10-15T17:08:59.574Z,17.30
2022-10-15T17:11:35.064Z,17.20
2022-10-15T17:14:11.202Z,17.20
2022-10-15T17:16:45.280Z,17.10
2022-10-15T17:19:14.946Z,17.10
2022-10-15T17:21:46.958Z,17.00
2022-10-15T17:24:16.271Z,16.90
2022-10-15T17:26:44.754Z,16.90
2022-10-15T17:29:16.565Z,16.90
2022-10-15T17:31:43.740Z,16.90
2022-10-15T17:34:11.934Z,16.90
2022-10-15T17:36:45.722Z,16.80
2022-10-15T17:39:26.628Z,16.80
2022-10-15T17:41:53.621Z,16.70
2022-10-15T17:44:23.339Z,16.70
2022-10-15T17:46:50.618Z,16.80
2022-10-15T17:49:19.045Z,16.70
2022-10-15T17:51:46.776Z,16.70
2022-10-15T17:54:13.958Z,16.70
2022-10-15T17:56:41.639Z,16.70
2022-10-15T17:59:11.631Z,16.70
2022-10-15T18:01:58.764Z,16.70
2022-10-15T18:04:28.850Z,16.60
2022-10-15T18:06:56.107Z,16.60
2022-10-15T18:09:29.000Z,16.60
2022-10-15T18:12:00.605Z,16.50
2022-10-15T18:14:33.825Z,16.50
2022-10-15T18:17:01.552Z,16.50
2022-10-15T18:19:29.645Z,16.50
2022-10-15T18:22:01.250Z,16.50
2022-10-15T18:24:28.408Z,16.50
2022-10-15T18:26:55.521Z,16.50
2022-10-15T18:29:23.958Z,16.40
2022-10-15T18:31:56.191Z,16.40
2022-10-15T18:34:24.953Z,16.40
2022-10-15T18:36:58.210Z,16.40
2022-10-15T18:39:26.069Z,16.30
2022-10-15T18:41:53.269Z,16.30
2022-10-15T18:44:23.634Z,16.30
2022-10-15T18:46:53.114Z,16.30
2022-10-15T18:49:21.718Z,16.30
2022-10-15T18:51:52.836Z,16.20
2022-10-15T18:54:26.156Z,16.20
2022-10-15T18:56:57.919Z,16.20
2022-10-15T18:59:25.017Z,16.20
2022-10-15T19:01:55.283Z,16.20
2022-10-15T19:04:23.657Z,16.10
2022-10-15T19:06:53.310Z,16.10
2022-10-15T19:09:26.859Z,16.10
2022-10-15T19:11:59.045Z,16.10
2022-10-15T19:14:28.335Z,16.10
2022-10-15T19:16:56.635Z,16.10
2022-10-15T19:19:25.891Z,16.10
2022-10-15T19:22:00.085Z,16.10
2022-10-15T19:24:29.071Z,16.10
2022-10-15T19:26:56.433Z,16.00
2022-10-15T19:29:31.540Z,16.00
2022-10-15T19:32:05.338Z,16.00
2022-10-15T19:34:35.296Z,16.00
2022-10-15T19:37:02.765Z,16.00
2022-10-15T19:39:32.858Z,16.00
2022-10-15T19:42:00.280Z,16.00
2022-10-15T19:44:27.887Z,16.00
2022-10-15T19:46:55.938Z,16.00
2022-10-15T19:49:23.751Z,16.00
2022-10-15T19:51:51.308Z,16.00
2022-10-15T19:54:18.362Z,16.00
2022-10-15T19:56:46.753Z,16.00
2022-10-15T19:59:16.131Z,16.00
2022-10-15T20:01:43.079Z,16.00
2022-10-15T20:04:10.118Z,16.00
2022-10-15T20:06:40.665Z,16.00
2022-10-15T20:09:09.025Z,16.00
2022-10-15T20:11:39.355Z,16.00
2022-10-15T20:14:06.511Z,16.00
2022-10-15T20:16:33.730Z,16.00
2022-10-15T20:19:04.134Z,16.00
2022-10-15T20:21:32.327Z,16.10
2022-10-15T20:24:00.113Z,16.10
2022-10-15T20:26:27.090Z,16.10
2022-10-15T20:28:54.252Z,16.00
2022-10-15T20:31:21.854Z,16.00
2022-10-15T20:33:50.267Z,16.00
2022-10-15T20:36:23.509Z,16.00
2022-10-15T20:38:53.194Z,16.00
2022-10-15T20:41:22.956Z,16.00
2022-10-15T20:43:54.962Z,16.00
2022-10-15T20:46:32.878Z,16.10
2022-10-15T20:49:08.506Z,16.10
2022-10-15T20:51:39.437Z,16.10
2022-10-15T20:54:07.135Z,16.00
2022-10-15T20:56:34.186Z,16.00
2022-10-15T20:59:02.802Z,16.00
2022-10-15T21:01:30.222Z,16.00
2022-10-15T21:03:57.585Z,16.00
2022-10-15T21:06:24.699Z,16.00
2022-10-15T21:08:54.252Z,16.00
2022-10-15T21:11:21.651Z,16.00
2022-10-15T21:13:48.757Z,16.00
2022-10-15T21:16:16.071Z,16.00
2022-10-15T21:18:43.513Z,16.00
2022-10-15T21:21:13.385Z,16.00
2022-10-15T21:23:43.804Z,16.00
2022-10-15T21:26:11.874Z,16.00
2022-10-15T21:28:39.447Z,16.00
2022-10-15T21:31:08.571Z,16.00
2022-10-15T21:33:36.207Z,16.00
2022-10-15T21:36:26.647Z,16.00
2022-10-15T21:39:09.696Z,16.10
2022-10-15T21:41:38.986Z,16.10
2022-10-15T21:44:07.849Z,16.10
2022-10-15T21:46:35.211Z,16.10
2022-10-15T21:49:06.385Z,16.20
2022-10-15T21:51:34.026Z,16.20
2022-10-15T21:54:02.041Z,16.20
2022-10-15T21:56:29.593Z,16.20
2022-10-15T21:58:58.967Z,16.30
2022-10-15T22:01:31.741Z,16.30
2022-10-15T22:04:09.059Z,16.30
2022-10-15T22:06:39.956Z,16.30
2022-10-15T22:09:08.549Z,16.30
2022-10-15T22:11:39.815Z,16.30
2022-10-15T22:14:10.597Z,16.30
2022-10-15T22:16:39.805Z,16.30
2022-10-15T22:19:10.709Z,16.30
2022-10-15T22:21:39.246Z,16.30
2022-10-15T22:24:10.223Z,16.20
2022-10-15T22:26:40.580Z,16.20
2022-10-15T22:29:20.840Z,16.20
2022-10-15T22:31:48.260Z,16.20
2022-10-15T22:34:16.262Z,16.20
2022-10-15T22:36:43.453Z,16.20
2022-10-15T22:39:14.020Z,16.20
2022-10-15T22:41:43.271Z,16.20
2022-10-15T22:44:17.715Z,16.30
2022-10-15T22:46:49.759Z,16.30
2022-10-15T22:49:18.522Z,16.30
2022-10-15T22:51:46.426Z,16.20
2022-10-15T22:54:15.725Z,16.20
2022-10-15T22:56:43.338Z,16.20
2022-10-15T22:59:14.177Z,16.20
2022-10-15T23:01:41.456Z,16.20
2022-10-15T23:04:13.217Z,16.10
2022-10-15T23:06:41.517Z,16.10
2022-10-15T23:09:11.686Z,16.10
2022-10-15T23:11:45.386Z,16.10
2022-10-15T23:14:14.983Z,16.10
2022-10-15T23:16:50.502Z,16.10
2022-10-15T23:19:22.433Z,16.10
2022-10-15T23:21:53.747Z,16.20
2022-10-15T23:24:24.628Z,16.20
2022-10-15T23:26:52.687Z,16.10
2022-10-15T23:29:22.243Z,16.10
2022-10-15T23:31:51.284Z,16.10
2022-10-15T23:34:25.706Z,16.10
2022-10-15T23:36:53.204Z,16.10
2022-10-15T23:39:25.033Z,16.00
2022-10-15T23:41:52.911Z,16.00
2022-10-15T23:44:20.676Z,16.00
2022-10-15T23:46:48.141Z,16.00
2022-10-15T23:49:15.577Z,16.00
2022-10-15T23:51:45.262Z,16.00
2022-10-15T23:54:17.947Z,16.00
2022-10-15T23:56:46.632Z,16.00
2022-10-15T23:59:17.453Z,15.90
